BGBW

Narsarsuaq Airport

Narsarsuaq, Greenland

BGBW 231050Z 07011KT 9999 FEW080 SCT090 BKN100 12/04 Q1011

Observed Flight Rules
Aug-23 @ 10:50 UTC (an hour ago)
 
Visual Flight Rules
Wind Visibility Clouds
70° at 11 knots 10,000+ meters
  • Few at 8,000' AGL
  • Scattered at 9,000' AGL
  • Broken at 10,000' AGL
Temperatures Readings
Current 12°C / 54°F
Dewpoint 4°C / 39°F
Humidity 58%
Altimeter 29.85" Hg
Pressure 1011 hPa
Elevation 26
Observed Flight Rules
Aug-23 @ 10:50 UTC
(an hour ago)
 
VFR
Wind Visibility
70° at 11 knots 10,000+ meters
Clouds
  • Few at 8,000' AGL
  • Scattered at 9,000' AGL
  • Broken at 10,000' AGL
Temperature Dewpoint
12°C / 54°F 4°C / 39°F
Humidity Altimeter Pressure
58% 29.85" Hg 1011 hPa